Hardinsburg, Indiana
Current Conditions -  °F | °C
As of 8:56 AM on Friday 28 Nov 2014 (Local Time) from KSDF Reporting Station
Broken Clouds Broken Clouds  
Wind Chill: 22°   Ceiling: 15000
Heat Index: 27°   Visibility: 10mi
Dew Point: 19°   Wind: 5mph
Humidity: 72%   Direction: 170°S
Pressure: 30.42"   Gusts: NA
Location:  38.46°N, 86.28°W
Report Text: KSDF 281356Z 17004KT 10SM BKN150 M03/M07 A3042 RMK AO2 SLP305 T10281072
Loading
Personal Weather Stations






























Interactive Weather Map New forecast layout! Learn more

10-Day Weather Forecast

Advertisements
Track Severe Weather on mobile